SAAP/PRA METAR and TAF weather

Enter ICAO airport designator
Station Type Date Time Source
SAAP METAR 2019/08/18 12:10 UTC NOAA

SAAP 181210Z 14014KT 4000 BR OVC006 10/10 Q1022 REFG


Station Type Date Time Source
SAAP Decoded METAR 2019/08/18 12:10 UTC NOAA

Station name not available
Aug 18, 2019 - 08:10 AM EDT / 2019.08.18 1210 UTC
Wind: from the SE (140 degrees) at 16 MPH (14 KT):0
Visibility: 2 mile(s):0
Sky conditions: overcast
Weather: mist
Temperature: 50 F (10 C)
Dew Point: 50 F (10 C)
Relative Humidity: 100%
Pressure (altimeter): 30.18 in. Hg (1022 hPa)
ob: SAAP 181210Z 14014KT 4000 BR OVC006 10/10 Q1022 REFG
cycle: 12

Station Type Date Time Source
SAAP TAF 2019/05/26 00:42 UTC NOAA

TAF TAF SAAP 262300Z 2700/2724 02005KT 7000 NSC TX20/2718Z TN11/2710Z
BECMG 2706/2708 VRB03KT 3000 BR BKN015 PROB30 2708/2712 0900 FG
BECMG 2713/2715 11005KT CAVOK

Example: see airport list